Terminal Aerodrome Forecast
Issued by NWS

Home | Current Version | Previous Version | Text Only | Print | Product List | Glossary On
Versions: 1 2 3 4 5 6 7 8 9 10 11 12 13 14
000
FTAK31 PAJN 202004 AAA
TAFAGY
TAF AMD
PAGY 202004Z 2020/2118 VRB03KT P6SM OVC050
     FM202100 21011KT P6SM BKN050
     FM210000 21018G25KT P6SM SCT050
     FM210400 21011KT P6SM BKN050
      AMD LTD TO CLD VIS AND WIND=

USA.gov is the U.S. government's official web portal to all federal, state and local government web resources and services.